createdAt,value
2022-11-10T00:01:06.056Z,37.97
2022-11-10T00:03:53.183Z,44.17
2022-11-10T00:06:41.809Z,39.00
2022-11-10T00:09:29.025Z,46.00
2022-11-10T00:12:15.765Z,43.80
2022-11-10T00:15:20.056Z,40.30
2022-11-10T00:18:07.093Z,36.50
2022-11-10T00:20:54.192Z,41.08
2022-11-10T00:23:42.937Z,36.43
2022-11-10T00:26:30.395Z,39.07
2022-11-10T00:29:17.308Z,40.63
2022-11-10T00:32:04.610Z,42.17
2022-11-10T00:34:51.658Z,46.20
2022-11-10T00:37:39.121Z,38.90
2022-11-10T00:40:27.086Z,38.20
2022-11-10T00:43:13.850Z,37.57
2022-11-10T00:46:01.259Z,41.73
2022-11-10T00:48:48.454Z,40.70
2022-11-10T00:51:35.382Z,40.97
2022-11-10T00:54:22.513Z,44.67
2022-11-10T00:57:10.587Z,36.40
2022-11-10T00:59:57.990Z,39.40
2022-11-10T01:02:45.072Z,43.15
2022-11-10T01:05:32.542Z,35.00
2022-11-10T01:08:19.164Z,39.00
2022-11-10T01:11:07.777Z,40.80
2022-11-10T01:13:57.347Z,39.92
2022-11-10T01:16:44.404Z,34.63
2022-11-10T01:19:31.074Z,37.00
2022-11-10T01:22:18.353Z,43.33
2022-11-10T01:25:05.935Z,38.37
2022-11-10T01:27:53.505Z,34.78
2022-11-10T01:30:41.906Z,38.90
2022-11-10T01:33:29.418Z,35.72
2022-11-10T01:36:16.314Z,36.15
2022-11-10T01:39:03.695Z,38.58
2022-11-10T01:41:50.555Z,32.13
2022-11-10T01:44:42.781Z,37.80
2022-11-10T01:47:30.928Z,35.85
2022-11-10T01:50:18.237Z,36.00
2022-11-10T01:53:10.123Z,35.28
2022-11-10T01:55:57.936Z,35.10
2022-11-10T01:58:47.076Z,40.95
2022-11-10T02:01:34.173Z,38.20
2022-11-10T02:04:23.482Z,36.17
2022-11-10T02:07:12.059Z,41.90
2022-11-10T02:09:59.383Z,36.33
2022-11-10T02:12:47.357Z,29.95
2022-11-10T02:15:34.331Z,36.40
2022-11-10T02:18:21.132Z,38.63
2022-11-10T02:21:10.017Z,30.93
2022-11-10T02:23:57.453Z,36.85
2022-11-10T02:26:48.231Z,36.75
2022-11-10T02:29:35.548Z,36.17
2022-11-10T02:32:22.215Z,36.95
2022-11-10T02:35:10.049Z,37.33
2022-11-10T02:37:58.236Z,35.72
2022-11-10T02:40:45.424Z,28.33
2022-11-10T02:43:32.393Z,35.03
2022-11-10T02:46:19.617Z,33.47
2022-11-10T02:49:06.237Z,35.37
2022-11-10T02:51:54.806Z,33.93
2022-11-10T02:54:42.677Z,35.43
2022-11-10T02:57:29.751Z,37.70
2022-11-10T03:00:17.260Z,37.60
2022-11-10T03:03:05.165Z,35.17
2022-11-10T03:05:51.906Z,32.47
2022-11-10T03:08:39.333Z,36.63
2022-11-10T03:11:31.978Z,35.40
2022-11-10T03:14:19.737Z,33.93
2022-11-10T03:17:06.432Z,36.67
2022-11-10T03:19:53.525Z,34.63
2022-11-10T03:22:40.151Z,32.57
2022-11-10T03:25:27.223Z,30.37
2022-11-10T03:28:15.321Z,28.90
2022-11-10T03:31:02.289Z,39.27
2022-11-10T03:33:48.970Z,38.63
2022-11-10T03:36:36.178Z,32.43
2022-11-10T03:39:23.862Z,34.37
2022-11-10T03:42:11.215Z,33.50
2022-11-10T03:44:59.358Z,35.25
2022-11-10T03:47:47.429Z,34.55
2022-11-10T03:50:34.073Z,30.30
2022-11-10T03:53:21.394Z,32.33
2022-11-10T03:56:08.966Z,30.75
2022-11-10T03:58:56.043Z,28.38
2022-11-10T04:01:44.245Z,34.08
2022-11-10T04:04:57.666Z,33.20
2022-11-10T04:07:58.413Z,29.73
2022-11-10T04:10:46.177Z,31.47
2022-11-10T04:13:50.544Z,33.17
2022-11-10T04:16:37.668Z,26.57
2022-11-10T04:19:25.801Z,34.07
2022-11-10T04:22:33.245Z,32.50
2022-11-10T04:25:20.092Z,28.73
2022-11-10T04:28:07.347Z,29.07
2022-11-10T04:30:54.081Z,32.60
2022-11-10T04:33:42.435Z,29.60
2022-11-10T04:36:32.362Z,28.47
2022-11-10T04:39:19.640Z,27.57
2022-11-10T04:42:06.406Z,29.65
2022-11-10T04:44:53.538Z,29.75
2022-11-10T04:47:40.523Z,31.77
2022-11-10T04:50:27.679Z,34.30
2022-11-10T04:53:16.243Z,37.70
2022-11-10T04:56:03.305Z,36.07
2022-11-10T04:58:50.745Z,25.37
2022-11-10T05:01:37.478Z,33.97
2022-11-10T05:04:24.226Z,26.67
2022-11-10T05:07:11.486Z,29.23
2022-11-10T05:09:59.597Z,30.30
2022-11-10T05:12:46.725Z,25.60
2022-11-10T05:15:34.598Z,27.83
2022-11-10T05:18:21.897Z,32.07
2022-11-10T05:21:08.737Z,28.10
2022-11-10T05:23:55.967Z,28.33
2022-11-10T05:26:44.173Z,29.77
2022-11-10T05:29:31.391Z,30.60
2022-11-10T05:32:17.965Z,29.03
2022-11-10T05:35:06.163Z,29.57
2022-11-10T05:37:53.090Z,23.80
2022-11-10T05:40:40.508Z,25.83
2022-11-10T05:43:28.439Z,25.33
2022-11-10T05:46:15.695Z,23.00
2022-11-10T05:49:02.913Z,27.20
2022-11-10T05:51:49.884Z,30.52
2022-11-10T05:54:36.465Z,26.37
2022-11-10T05:57:23.757Z,23.15
2022-11-10T06:00:13.642Z,22.40
2022-11-10T06:03:02.519Z,24.90
2022-11-10T06:05:50.010Z,22.20
2022-11-10T06:08:37.233Z,22.40
2022-11-10T06:11:24.060Z,23.48
2022-11-10T06:14:11.254Z,19.90
2022-11-10T06:16:59.146Z,24.63
2022-11-10T06:19:46.370Z,22.77
2022-11-10T06:22:33.332Z,20.27
2022-11-10T06:25:20.713Z,25.43
2022-11-10T06:28:08.204Z,22.80
2022-11-10T06:30:58.975Z,21.20
2022-11-10T06:33:49.149Z,19.63
2022-11-10T06:36:36.448Z,21.57
2022-11-10T06:39:23.097Z,22.30
2022-11-10T06:42:10.250Z,21.77
2022-11-10T06:44:57.133Z,19.33
2022-11-10T06:47:44.335Z,26.03
2022-11-10T06:50:32.763Z,23.50
2022-11-10T06:53:23.013Z,24.00
2022-11-10T06:56:13.660Z,23.13
2022-11-10T06:59:00.911Z,26.13
2022-11-10T07:01:48.745Z,24.80
2022-11-10T07:04:35.989Z,18.37
2022-11-10T07:07:24.142Z,23.20
2022-11-10T07:10:11.242Z,25.97
2022-11-10T07:12:58.805Z,21.17
2022-11-10T07:15:45.860Z,20.13
2022-11-10T07:18:32.614Z,18.43
2022-11-10T07:21:20.220Z,20.27
2022-11-10T07:24:09.523Z,26.90
2022-11-10T07:26:56.925Z,21.23
2022-11-10T07:29:43.570Z,19.40
2022-11-10T07:32:30.970Z,22.33
2022-11-10T07:35:17.904Z,20.80
2022-11-10T07:38:06.247Z,22.97
2022-11-10T07:40:54.876Z,16.03
2022-11-10T07:43:42.267Z,21.50
2022-11-10T07:46:29.083Z,24.73
2022-11-10T07:49:16.190Z,20.23
2022-11-10T07:52:03.214Z,17.13
2022-11-10T07:54:50.270Z,18.00
2022-11-10T07:57:38.322Z,19.80
2022-11-10T08:00:25.331Z,19.57
2022-11-10T08:03:14.353Z,17.80
2022-11-10T08:06:01.473Z,17.67
2022-11-10T08:08:48.248Z,18.83
2022-11-10T08:11:35.580Z,18.35
2022-11-10T08:14:23.778Z,16.93
2022-11-10T08:17:10.630Z,17.90
2022-11-10T08:19:57.449Z,17.93
2022-11-10T08:22:46.156Z,18.33
2022-11-10T08:25:35.588Z,22.23
2022-11-10T08:28:22.786Z,16.65
2022-11-10T08:31:11.356Z,18.27
2022-11-10T08:33:58.536Z,15.60
2022-11-10T08:36:45.194Z,20.35
2022-11-10T08:39:38.899Z,13.00
2022-11-10T08:42:26.306Z,17.30
2022-11-10T08:45:13.894Z,26.25
2022-11-10T08:48:03.199Z,15.27
2022-11-10T08:50:51.445Z,17.90
2022-11-10T08:53:38.349Z,17.47
2022-11-10T08:56:25.698Z,17.38
2022-11-10T08:59:12.329Z,14.00
2022-11-10T09:01:59.972Z,13.13
2022-11-10T09:04:48.270Z,18.50
2022-11-10T09:07:43.137Z,18.92
2022-11-10T09:10:29.822Z,13.02
2022-11-10T09:13:17.677Z,17.55
2022-11-10T09:16:06.225Z,14.32
2022-11-10T09:18:53.039Z,15.32
2022-11-10T09:21:41.567Z,15.27
2022-11-10T09:24:31.517Z,11.52
2022-11-10T09:27:18.667Z,16.13
2022-11-10T09:30:08.842Z,19.27
2022-11-10T09:32:58.608Z,13.32
2022-11-10T09:35:45.594Z,15.07
2022-11-10T09:38:33.957Z,18.67
2022-11-10T09:41:21.215Z,14.80
2022-11-10T09:44:15.180Z,14.90
2022-11-10T09:47:06.360Z,12.95
2022-11-10T09:49:57.920Z,13.98
2022-11-10T09:52:48.551Z,16.10
2022-11-10T09:55:44.239Z,24.70
2022-11-10T09:58:36.028Z,12.25
2022-11-10T10:01:32.013Z,15.95
2022-11-10T10:04:33.362Z,9.70
2022-11-10T10:07:26.264Z,19.90
2022-11-10T10:10:17.712Z,14.15
2022-11-10T10:13:21.750Z,13.48
2022-11-10T10:16:18.175Z,18.88
2022-11-10T10:19:15.837Z,19.30
2022-11-10T10:22:33.682Z,14.93
2022-11-10T10:25:23.181Z,15.20
2022-11-10T10:28:17.679Z,11.55
2022-11-10T10:31:18.131Z,12.98
2022-11-10T10:34:05.903Z,18.08
2022-11-10T10:36:52.895Z,20.13
2022-11-10T10:39:45.233Z,12.43
2022-11-10T10:42:33.581Z,14.48
2022-11-10T10:45:24.432Z,14.82
2022-11-10T10:48:29.015Z,13.23
2022-11-10T10:51:30.342Z,17.13
2022-11-10T10:54:36.369Z,15.73
2022-11-10T10:57:25.041Z,13.02
2022-11-10T11:00:20.603Z,27.35
2022-11-10T11:03:14.709Z,13.85
2022-11-10T11:06:08.440Z,26.33
2022-11-10T11:09:01.574Z,13.82
2022-11-10T11:12:01.821Z,11.70
2022-11-10T11:14:48.788Z,16.58
2022-11-10T11:17:36.281Z,13.95
2022-11-10T11:20:34.586Z,13.05
2022-11-10T11:23:43.677Z,13.38
2022-11-10T11:26:41.412Z,13.43
2022-11-10T11:29:44.788Z,15.95
2022-11-10T11:32:59.405Z,15.05
2022-11-10T11:35:54.604Z,10.10
2022-11-10T11:38:53.295Z,12.07
2022-11-10T11:41:47.529Z,6.82
2022-11-10T11:44:45.224Z,16.35
2022-11-10T11:47:47.506Z,11.18
2022-11-10T11:50:41.324Z,6.72
2022-11-10T11:53:43.836Z,8.65
2022-11-10T11:56:34.175Z,10.75
2022-11-10T11:59:44.248Z,21.85
2022-11-10T12:03:10.880Z,9.25
2022-11-10T12:06:13.921Z,12.30
2022-11-10T12:09:08.847Z,13.68
2022-11-10T12:12:13.510Z,8.20
2022-11-10T12:15:08.772Z,13.35
2022-11-10T12:18:04.310Z,14.18
2022-11-10T12:21:02.050Z,14.82
2022-11-10T12:24:10.520Z,11.13
2022-11-10T12:27:00.754Z,15.55
2022-11-10T12:29:53.627Z,10.55
2022-11-10T12:32:46.664Z,13.00
2022-11-10T12:35:37.121Z,10.15
2022-11-10T12:38:28.119Z,10.65
2022-11-10T12:41:19.425Z,15.40
2022-11-10T12:44:17.364Z,19.02
2022-11-10T12:47:06.761Z,12.82
2022-11-10T12:50:00.856Z,7.93
2022-11-10T12:52:54.396Z,17.70
2022-11-10T12:55:46.687Z,11.05
2022-11-10T12:58:34.869Z,10.65
2022-11-10T13:01:22.197Z,18.35
2022-11-10T13:04:08.804Z,23.13
2022-11-10T13:06:58.525Z,10.57
2022-11-10T13:09:45.714Z,10.45
2022-11-10T13:12:33.005Z,11.38
2022-11-10T13:15:52.332Z,12.00
2022-11-10T13:19:00.641Z,20.98
2022-11-10T13:22:09.809Z,10.48
2022-11-10T13:25:30.329Z,18.95
2022-11-10T13:28:37.129Z,15.15
2022-11-10T13:31:42.875Z,10.13
2022-11-10T13:34:34.873Z,10.63
2022-11-10T13:37:50.358Z,10.50
2022-11-10T13:40:39.400Z,14.82
2022-11-10T13:43:28.516Z,14.40
2022-11-10T13:46:15.740Z,11.32
2022-11-10T13:49:29.180Z,24.20
2022-11-10T13:52:18.600Z,13.75
2022-11-10T13:55:20.112Z,6.68
2022-11-10T13:58:11.542Z,10.15
2022-11-10T14:01:29.020Z,11.82
2022-11-10T14:04:41.306Z,20.05
2022-11-10T14:07:32.255Z,11.85
2022-11-10T14:10:29.549Z,11.52
2022-11-10T14:13:21.516Z,6.72
2022-11-10T14:16:17.301Z,15.18
2022-11-10T14:19:16.955Z,26.75
2022-11-10T14:22:15.525Z,10.95
2022-11-10T14:25:06.763Z,11.48
2022-11-10T14:27:58.222Z,13.07
2022-11-10T14:30:52.340Z,13.18
2022-11-10T14:33:39.202Z,12.45
2022-11-10T14:36:26.650Z,19.77
2022-11-10T14:39:18.038Z,19.98
2022-11-10T14:42:06.590Z,13.40
2022-11-10T14:45:07.417Z,15.48
2022-11-10T14:47:55.907Z,15.82
2022-11-10T14:50:42.508Z,17.25
2022-11-10T14:53:34.024Z,12.93
2022-11-10T14:56:30.418Z,12.32
2022-11-10T14:59:19.472Z,11.52
2022-11-10T15:02:15.792Z,10.95
2022-11-10T15:05:03.887Z,18.45
2022-11-10T15:07:54.781Z,15.07
2022-11-10T15:10:47.471Z,19.20
2022-11-10T15:13:38.938Z,17.65
2022-11-10T15:16:27.900Z,20.98
2022-11-10T15:19:22.638Z,23.83
2022-11-10T15:22:18.131Z,20.60
2022-11-10T15:25:14.393Z,15.27
2022-11-10T15:28:04.820Z,19.70
2022-11-10T15:30:57.610Z,20.35
2022-11-10T15:33:48.816Z,18.48
2022-11-10T15:36:39.565Z,21.70
2022-11-10T15:39:27.898Z,23.23
2022-11-10T15:42:16.557Z,21.33
2022-11-10T15:45:03.797Z,20.20
2022-11-10T15:47:52.443Z,30.50
2022-11-10T15:50:39.863Z,21.42
2022-11-10T15:53:28.989Z,24.17
2022-11-10T15:56:17.805Z,24.92
2022-11-10T15:59:05.057Z,30.23
2022-11-10T16:01:52.514Z,26.27
2022-11-10T16:04:40.948Z,20.02
2022-11-10T16:07:27.877Z,25.38
2022-11-10T16:10:15.023Z,24.33
2022-11-10T16:13:02.232Z,29.98
2022-11-10T16:15:49.550Z,28.70
2022-11-10T16:18:40.022Z,23.40
2022-11-10T16:21:31.751Z,26.83
2022-11-10T16:24:18.980Z,29.58
2022-11-10T16:27:06.884Z,24.80
2022-11-10T16:29:53.784Z,24.85
2022-11-10T16:32:40.455Z,29.58
2022-11-10T16:35:28.029Z,23.05
2022-11-10T16:38:20.812Z,29.38
2022-11-10T16:41:13.788Z,27.85
2022-11-10T16:44:00.898Z,20.48
2022-11-10T16:46:53.914Z,22.05
2022-11-10T16:49:44.660Z,25.33
2022-11-10T16:52:31.726Z,23.65
2022-11-10T16:55:20.027Z,22.17
2022-11-10T16:58:07.601Z,34.30
2022-11-10T17:00:56.845Z,21.45
2022-11-10T17:03:47.606Z,26.38
2022-11-10T17:06:34.575Z,31.33
2022-11-10T17:09:26.085Z,24.90
2022-11-10T17:12:15.663Z,28.58
2022-11-10T17:15:03.591Z,26.23
2022-11-10T17:17:58.837Z,21.73
2022-11-10T17:20:51.200Z,24.25
2022-11-10T17:23:38.267Z,24.92
2022-11-10T17:26:26.238Z,29.42
2022-11-10T17:29:22.367Z,29.08
2022-11-10T17:32:09.745Z,23.38
2022-11-10T17:34:57.385Z,26.80
2022-11-10T17:37:50.645Z,27.70
2022-11-10T17:40:37.752Z,24.88
2022-11-10T17:43:25.887Z,29.20
2022-11-10T17:46:15.052Z,26.00
2022-11-10T17:49:03.285Z,26.60
2022-11-10T17:51:50.453Z,28.70
2022-11-10T17:54:37.903Z,27.15
2022-11-10T17:57:24.902Z,22.05
2022-11-10T18:00:13.475Z,28.35
2022-11-10T18:03:02.786Z,24.13
2022-11-10T18:05:50.725Z,25.48
2022-11-10T18:08:38.535Z,27.17
2022-11-10T18:11:25.669Z,24.02
2022-11-10T18:14:13.119Z,31.77
2022-11-10T18:17:00.500Z,35.88
2022-11-10T18:19:48.834Z,28.60
2022-11-10T18:22:35.910Z,32.50
2022-11-10T18:25:24.343Z,25.95
2022-11-10T18:28:16.458Z,22.52
2022-11-10T18:31:08.657Z,26.00
2022-11-10T18:33:56.893Z,21.75
2022-11-10T18:36:46.178Z,24.42
2022-11-10T18:39:34.767Z,25.10
2022-11-10T18:42:23.603Z,19.95
2022-11-10T18:45:13.640Z,22.92
2022-11-10T18:48:07.278Z,23.73
2022-11-10T18:50:55.894Z,23.25
2022-11-10T18:53:45.756Z,22.80
2022-11-10T18:56:34.524Z,23.20
2022-11-10T18:59:22.726Z,20.65
2022-11-10T19:02:13.956Z,24.52
2022-11-10T19:05:05.638Z,21.35
2022-11-10T19:07:55.195Z,24.23
2022-11-10T19:10:45.649Z,25.85
2022-11-10T19:13:35.278Z,26.35
2022-11-10T19:16:23.629Z,26.83
2022-11-10T19:19:13.536Z,25.88
2022-11-10T19:22:02.011Z,20.05
2022-11-10T19:28:01.068Z,25.88
2022-11-10T19:30:49.990Z,24.35
2022-11-10T19:33:40.560Z,25.10
2022-11-10T19:36:30.268Z,26.13
2022-11-10T19:39:18.722Z,35.30
2022-11-10T19:42:07.953Z,26.08
2022-11-10T19:44:58.038Z,26.73
2022-11-10T19:47:47.012Z,29.92
2022-11-10T19:50:35.449Z,36.33
2022-11-10T19:53:24.734Z,30.33
2022-11-10T19:56:16.814Z,32.50
2022-11-10T19:59:06.379Z,25.27
2022-11-10T20:01:59.424Z,34.85
2022-11-10T20:05:05.267Z,23.02
2022-11-10T20:08:10.547Z,28.83
2022-11-10T20:11:01.601Z,35.97
2022-11-10T20:13:54.414Z,31.00
2022-11-10T20:16:42.753Z,32.50
2022-11-10T20:19:40.865Z,27.33
2022-11-10T20:22:28.495Z,24.60
2022-11-10T20:25:16.007Z,25.77
2022-11-10T20:28:05.972Z,27.85
2022-11-10T20:30:55.941Z,22.65
2022-11-10T20:33:43.736Z,31.27
2022-11-10T20:36:33.916Z,22.80
2022-11-10T20:39:21.214Z,26.10
2022-11-10T20:42:08.031Z,26.27
2022-11-10T20:44:55.494Z,21.98
2022-11-10T20:47:42.447Z,22.17
2022-11-10T20:50:29.310Z,24.70
2022-11-10T20:53:17.249Z,27.35
2022-11-10T20:56:05.006Z,27.45
2022-11-10T20:58:53.545Z,25.23
2022-11-10T21:01:40.529Z,22.85
2022-11-10T21:04:27.627Z,30.67
2022-11-10T21:07:14.757Z,25.80
2022-11-10T21:10:03.346Z,29.52
2022-11-10T21:12:50.220Z,24.40
2022-11-10T21:15:39.457Z,26.92
2022-11-10T21:18:28.501Z,29.00
2022-11-10T21:21:22.607Z,25.88
2022-11-10T21:24:10.617Z,22.75
2022-11-10T21:26:59.127Z,26.13
2022-11-10T21:29:46.457Z,25.35
2022-11-10T21:32:33.380Z,25.23
2022-11-10T21:35:21.107Z,24.67
2022-11-10T21:38:08.230Z,23.33
2022-11-10T21:40:55.470Z,22.60
2022-11-10T21:43:43.447Z,20.17
2022-11-10T21:46:30.650Z,18.77
2022-11-10T21:49:17.384Z,24.98
2022-11-10T21:52:04.637Z,20.27
2022-11-10T21:54:51.299Z,26.65
2022-11-10T21:57:38.458Z,23.58
2022-11-10T22:00:27.653Z,23.25
2022-11-10T22:03:14.659Z,24.25
2022-11-10T22:06:04.616Z,20.33
2022-11-10T22:08:51.341Z,24.08
2022-11-10T22:11:57.890Z,21.15
2022-11-10T22:15:02.848Z,18.47
2022-11-10T22:18:08.283Z,20.37
2022-11-10T22:20:55.488Z,23.35
2022-11-10T22:24:08.294Z,27.50
2022-11-10T22:26:57.190Z,25.70
2022-11-10T22:29:44.384Z,20.75
2022-11-10T22:32:31.285Z,19.33
2022-11-10T22:35:33.583Z,16.65
2022-11-10T22:38:20.591Z,19.07
2022-11-10T22:41:29.752Z,23.53
2022-11-10T22:44:18.623Z,18.00
2022-11-10T22:47:06.364Z,18.25
2022-11-10T22:49:53.660Z,17.77
2022-11-10T22:52:41.539Z,27.38
2022-11-10T22:55:28.424Z,18.40
2022-11-10T22:58:15.370Z,22.15
2022-11-10T23:01:07.431Z,20.73
2022-11-10T23:03:54.166Z,20.52
2022-11-10T23:06:41.105Z,21.30
2022-11-10T23:09:29.434Z,23.35
2022-11-10T23:12:18.296Z,20.17
2022-11-10T23:15:05.584Z,23.83
2022-11-10T23:17:52.742Z,19.00
2022-11-10T23:20:39.391Z,16.33
2022-11-10T23:23:27.281Z,21.13
2022-11-10T23:26:17.499Z,18.77
2022-11-10T23:29:04.748Z,16.73
2022-11-10T23:31:51.512Z,15.83
2022-11-10T23:34:38.550Z,17.95
2022-11-10T23:37:25.383Z,20.80
2022-11-10T23:40:13.385Z,18.88
2022-11-10T23:43:01.617Z,20.45
2022-11-10T23:46:05.823Z,20.08
2022-11-10T23:48:53.723Z,21.05
2022-11-10T23:51:40.921Z,25.23
2022-11-10T23:54:27.492Z,24.63
2022-11-10T23:57:14.846Z,19.25
